createdAt,value
2022-09-27T00:00:16.959Z,13.62
2022-09-27T00:01:17.203Z,13.71
2022-09-27T00:02:17.303Z,13.64
2022-09-27T00:03:17.089Z,13.71
2022-09-27T00:04:16.948Z,13.71
2022-09-27T00:05:16.965Z,13.71
2022-09-27T00:06:16.990Z,13.64
2022-09-27T00:07:16.958Z,13.65
2022-09-27T00:08:16.974Z,13.67
2022-09-27T00:09:18.171Z,13.7
2022-09-27T00:10:16.986Z,13.62
2022-09-27T00:11:16.998Z,13.71
2022-09-27T00:12:16.986Z,13.58
2022-09-27T00:13:16.985Z,13.55
2022-09-27T00:14:16.975Z,13.57
2022-09-27T00:15:16.967Z,13.6
2022-09-27T00:16:21.984Z,13.57
2022-09-27T00:17:16.987Z,13.71
2022-09-27T00:18:19.747Z,13.67
2022-09-27T00:19:17.494Z,13.64
2022-09-27T00:20:16.989Z,13.52
2022-09-27T00:21:16.996Z,13.6
2022-09-27T00:22:17.018Z,13.67
2022-09-27T00:23:16.976Z,13.5
2022-09-27T00:24:17.000Z,13.57
2022-09-27T00:25:16.980Z,13.57
2022-09-27T00:26:17.010Z,13.54
2022-09-27T00:27:16.995Z,13.58
2022-09-27T00:28:17.022Z,13.47
2022-09-27T00:29:19.928Z,13.49
2022-09-27T00:30:16.998Z,13.5
2022-09-27T00:31:17.463Z,13.45
2022-09-27T00:32:17.024Z,13.4
2022-09-27T00:33:17.038Z,13.4
2022-09-27T00:34:17.034Z,13.37
2022-09-27T00:35:17.012Z,13.36
2022-09-27T00:36:17.019Z,13.37
2022-09-27T00:37:17.013Z,13.4
2022-09-27T00:38:17.143Z,13.31
2022-09-27T00:39:17.304Z,13.31
2022-09-27T00:40:23.440Z,13.19
2022-09-27T00:41:17.101Z,13.36
2022-09-27T00:42:17.049Z,13.16
2022-09-27T00:43:17.015Z,13.27
2022-09-27T00:44:17.046Z,13.26
2022-09-27T00:45:17.025Z,13.28
2022-09-27T00:46:17.272Z,13.28
2022-09-27T00:47:17.032Z,13.33
2022-09-27T00:48:17.059Z,13.19
2022-09-27T00:49:17.136Z,13.13
2022-09-27T00:50:17.034Z,13.12
2022-09-27T00:51:20.131Z,13.16
2022-09-27T00:52:17.051Z,13.16
2022-09-27T00:53:17.055Z,13.16
2022-09-27T00:54:17.175Z,13.19
2022-09-27T00:55:17.050Z,13.17
2022-09-27T00:56:20.197Z,13.05
2022-09-27T00:57:17.038Z,13.12
2022-09-27T00:58:17.074Z,13.27
2022-09-27T00:59:18.117Z,13.11
2022-09-27T01:00:17.079Z,13.08
2022-09-27T01:01:17.251Z,13.24
2022-09-27T01:02:20.161Z,13.17
2022-09-27T01:03:17.058Z,13.2
2022-09-27T01:04:17.140Z,13.2
2022-09-27T01:05:17.048Z,13.2
2022-09-27T01:06:17.048Z,13.2
2022-09-27T01:07:20.191Z,13.16
2022-09-27T01:08:17.067Z,13.17
2022-09-27T01:09:17.211Z,13.23
2022-09-27T01:10:17.084Z,13.12
2022-09-27T01:11:17.063Z,13.09
2022-09-27T01:12:17.061Z,13.19
2022-09-27T01:13:19.864Z,13.19
2022-09-27T01:14:17.075Z,13.02
2022-09-27T01:15:17.098Z,13.24
2022-09-27T01:16:17.445Z,13.16
2022-09-27T01:17:17.066Z,13.13
2022-09-27T01:18:19.834Z,12.95
2022-09-27T01:19:17.248Z,12.94
2022-09-27T01:20:17.083Z,12.91
2022-09-27T01:21:17.079Z,12.91
2022-09-27T01:22:17.080Z,12.99
2022-09-27T01:23:17.092Z,12.93
2022-09-27T01:24:17.109Z,12.86
2022-09-27T01:25:17.091Z,12.83
2022-09-27T01:26:17.102Z,12.9
2022-09-27T01:27:17.104Z,12.87
2022-09-27T01:28:17.091Z,12.87
2022-09-27T01:29:20.920Z,12.76
2022-09-27T01:30:17.104Z,12.84
2022-09-27T01:31:17.334Z,12.86
2022-09-27T01:32:17.130Z,12.81
2022-09-27T01:33:17.118Z,12.83
2022-09-27T01:34:17.311Z,12.88
2022-09-27T01:35:17.104Z,12.8
2022-09-27T01:36:17.093Z,12.63
2022-09-27T01:37:17.115Z,12.54
2022-09-27T01:38:17.126Z,12.63
2022-09-27T01:39:17.357Z,12.62
2022-09-27T01:40:20.424Z,12.75
2022-09-27T01:41:17.112Z,12.65
2022-09-27T01:42:24.200Z,12.68
2022-09-27T01:43:17.115Z,12.69
2022-09-27T01:44:17.250Z,12.65
2022-09-27T01:45:17.144Z,12.73
2022-09-27T01:46:17.356Z,12.69
2022-09-27T01:47:17.115Z,12.69
2022-09-27T01:48:17.148Z,12.76
2022-09-27T01:49:17.403Z,12.81
2022-09-27T01:50:17.147Z,12.66
2022-09-27T01:51:20.133Z,12.65
2022-09-27T01:52:17.134Z,12.68
2022-09-27T01:53:17.131Z,12.69
2022-09-27T01:54:17.152Z,12.63
2022-09-27T01:55:17.131Z,12.72
2022-09-27T01:56:17.167Z,12.58
2022-09-27T01:57:17.257Z,12.72
2022-09-27T01:58:17.164Z,12.63
2022-09-27T01:59:17.298Z,12.53
2022-09-27T02:00:17.152Z,12.65
2022-09-27T02:01:17.379Z,12.63
2022-09-27T02:02:20.149Z,12.55
2022-09-27T02:03:17.157Z,12.62
2022-09-27T02:04:17.193Z,12.58
2022-09-27T02:05:17.152Z,12.68
2022-09-27T02:06:17.627Z,12.54
2022-09-27T02:07:17.163Z,12.62
2022-09-27T02:08:17.156Z,12.61
2022-09-27T02:09:17.572Z,12.45
2022-09-27T02:10:17.157Z,12.4
2022-09-27T02:11:17.166Z,12.45
2022-09-27T02:12:17.162Z,12.43
2022-09-27T02:13:20.024Z,12.57
2022-09-27T02:14:17.202Z,12.55
2022-09-27T02:15:17.164Z,12.45
2022-09-27T02:16:17.423Z,12.4
2022-09-27T02:17:17.197Z,12.4
2022-09-27T02:18:17.174Z,12.4
2022-09-27T02:19:17.503Z,12.43
2022-09-27T02:20:17.200Z,12.51
2022-09-27T02:21:17.178Z,12.45
2022-09-27T02:22:17.178Z,12.39
2022-09-27T02:23:17.171Z,12.54
2022-09-27T02:24:17.210Z,12.39
2022-09-27T02:25:17.292Z,12.53
2022-09-27T02:26:17.205Z,12.48
2022-09-27T02:27:17.207Z,12.62
2022-09-27T02:28:17.207Z,12.39
2022-09-27T02:29:17.412Z,12.4
2022-09-27T02:30:17.209Z,12.32
2022-09-27T02:31:17.409Z,12.33
2022-09-27T02:32:17.192Z,12.43
2022-09-27T02:33:17.214Z,12.39
2022-09-27T02:34:17.216Z,12.35
2022-09-27T02:35:17.197Z,12.35
2022-09-27T02:36:17.225Z,12.36
2022-09-27T02:37:17.197Z,12.32
2022-09-27T02:38:17.204Z,12.28
2022-09-27T02:39:17.509Z,12.32
2022-09-27T02:40:17.465Z,12.3
2022-09-27T02:41:17.235Z,12.2
2022-09-27T02:42:17.228Z,12.21
2022-09-27T02:43:17.210Z,12.21
2022-09-27T02:44:17.249Z,12.18
2022-09-27T02:45:20.145Z,12.35
2022-09-27T02:46:17.520Z,12.17
2022-09-27T02:47:17.261Z,12.14
2022-09-27T02:48:17.516Z,12.11
2022-09-27T02:49:17.411Z,12.11
2022-09-27T02:50:17.242Z,12.2
2022-09-27T02:51:17.230Z,12.1
2022-09-27T02:52:17.245Z,12.15
2022-09-27T02:53:17.232Z,12.12
2022-09-27T02:54:17.254Z,12.18
2022-09-27T02:55:17.234Z,12.14
2022-09-27T02:56:20.121Z,12.05
2022-09-27T02:57:17.307Z,12.03
2022-09-27T02:58:17.245Z,12
2022-09-27T02:59:17.485Z,12.03
2022-09-27T03:00:17.239Z,12.05
2022-09-27T03:01:17.544Z,12.05
2022-09-27T03:02:18.690Z,12.05
2022-09-27T03:03:17.453Z,12.11
2022-09-27T03:04:17.267Z,12.08
2022-09-27T03:05:17.285Z,12.08
2022-09-27T03:06:17.248Z,12.05
2022-09-27T03:07:20.318Z,12.08
2022-09-27T03:08:17.286Z,12.07
2022-09-27T03:09:17.574Z,12.02
2022-09-27T03:10:17.256Z,12.02
2022-09-27T03:11:17.289Z,12.1
2022-09-27T03:12:17.426Z,12
2022-09-27T03:13:17.339Z,11.99
2022-09-27T03:14:17.273Z,12.08
2022-09-27T03:15:17.282Z,11.95
2022-09-27T03:16:17.288Z,11.99
2022-09-27T03:17:17.499Z,12.03
2022-09-27T03:18:20.060Z,12.11
2022-09-27T03:19:17.434Z,12.11
2022-09-27T03:20:17.290Z,12.14
2022-09-27T03:21:17.295Z,12.23
2022-09-27T03:22:17.283Z,12.1
2022-09-27T03:23:20.033Z,12.1
2022-09-27T03:24:17.344Z,12.08
2022-09-27T03:25:17.291Z,12.07
2022-09-27T03:26:17.886Z,12.18
2022-09-27T03:27:17.279Z,12.18
2022-09-27T03:28:17.320Z,12.03
2022-09-27T03:29:19.176Z,12.02
2022-09-27T03:30:17.303Z,12.05
2022-09-27T03:31:17.450Z,12.08
2022-09-27T03:32:17.287Z,12.14
2022-09-27T03:33:17.318Z,12.14
2022-09-27T03:34:20.168Z,12.15
2022-09-27T03:35:17.299Z,12.12
2022-09-27T03:36:17.290Z,12.03
2022-09-27T03:37:17.511Z,12.15
2022-09-27T03:38:17.417Z,12.25
2022-09-27T03:39:17.579Z,12.14
2022-09-27T03:40:20.660Z,12.21
2022-09-27T03:41:17.317Z,12.12
2022-09-27T03:42:17.305Z,11.99
2022-09-27T03:43:17.316Z,12.15
2022-09-27T03:44:17.481Z,12
2022-09-27T03:45:18.688Z,12.12
2022-09-27T03:46:17.539Z,12.03
2022-09-27T03:47:21.410Z,12.15
2022-09-27T03:48:17.322Z,12.15
2022-09-27T03:49:20.223Z,12.11
2022-09-27T03:50:17.342Z,12.11
2022-09-27T03:51:20.108Z,12.07
2022-09-27T03:52:17.325Z,12.07
2022-09-27T03:53:17.349Z,12.1
2022-09-27T03:54:17.323Z,12.14
2022-09-27T03:55:17.433Z,11.96
2022-09-27T03:56:20.144Z,12
2022-09-27T03:57:17.372Z,12.11
2022-09-27T03:58:17.385Z,12.05
2022-09-27T03:59:17.602Z,12.03
2022-09-27T04:00:17.354Z,12.14
2022-09-27T04:01:17.600Z,12.11
2022-09-27T04:02:17.513Z,12.21
2022-09-27T04:03:17.347Z,12.12
2022-09-27T04:04:18.397Z,12.2
2022-09-27T04:05:17.366Z,12.07
2022-09-27T04:06:17.374Z,12.11
2022-09-27T04:07:20.125Z,12.08
2022-09-27T04:08:17.354Z,12.08
2022-09-27T04:09:17.479Z,12.03
2022-09-27T04:10:17.380Z,12.15
2022-09-27T04:11:17.366Z,12.15
2022-09-27T04:12:17.385Z,12.14
2022-09-27T04:13:17.359Z,12.15
2022-09-27T04:14:17.372Z,12.14
2022-09-27T04:15:17.373Z,12.2
2022-09-27T04:16:17.528Z,12
2022-09-27T04:17:17.545Z,12.08
2022-09-27T04:18:20.516Z,12.03
2022-09-27T04:19:17.560Z,12
2022-09-27T04:20:17.400Z,12
2022-09-27T04:21:17.389Z,12.14
2022-09-27T04:22:17.409Z,11.99
2022-09-27T04:23:17.370Z,12.12
2022-09-27T04:24:17.375Z,12.07
2022-09-27T04:25:20.502Z,12
2022-09-27T04:26:17.390Z,11.97
2022-09-27T04:27:17.401Z,11.96
2022-09-27T04:28:17.411Z,12.02
2022-09-27T04:29:20.201Z,12.03
2022-09-27T04:30:17.438Z,12
2022-09-27T04:31:17.613Z,11.93
2022-09-27T04:32:17.389Z,11.99
2022-09-27T04:33:17.392Z,11.88
2022-09-27T04:34:17.401Z,12
2022-09-27T04:35:17.416Z,11.96
2022-09-27T04:36:17.419Z,11.86
2022-09-27T04:37:17.410Z,11.77
2022-09-27T04:38:17.425Z,11.8
2022-09-27T04:39:17.847Z,11.74
2022-09-27T04:40:20.399Z,11.71
2022-09-27T04:41:17.434Z,11.71
2022-09-27T04:42:17.400Z,11.8
2022-09-27T04:43:17.409Z,11.91
2022-09-27T04:44:17.442Z,11.77
2022-09-27T04:45:17.429Z,11.89
2022-09-27T04:46:17.715Z,11.77
2022-09-27T04:47:17.449Z,11.81
2022-09-27T04:48:17.407Z,11.8
2022-09-27T04:49:20.287Z,11.83
2022-09-27T04:50:17.517Z,11.81
2022-09-27T04:51:17.416Z,11.83
2022-09-27T04:52:17.494Z,11.81
2022-09-27T04:53:17.505Z,11.8
2022-09-27T04:54:20.524Z,11.83
2022-09-27T04:55:17.452Z,11.88
2022-09-27T04:56:17.481Z,11.73
2022-09-27T04:57:17.471Z,11.86
2022-09-27T04:58:17.420Z,11.83
2022-09-27T04:59:17.579Z,11.85
2022-09-27T05:00:17.482Z,11.76
2022-09-27T05:01:17.618Z,11.68
2022-09-27T05:02:17.755Z,11.8
2022-09-27T05:03:17.440Z,11.71
2022-09-27T05:04:17.440Z,11.77
2022-09-27T05:05:17.455Z,11.7
2022-09-27T05:06:17.449Z,11.63
2022-09-27T05:07:17.444Z,11.71
2022-09-27T05:08:17.452Z,11.63
2022-09-27T05:09:17.670Z,11.56
2022-09-27T05:10:17.527Z,11.71
2022-09-27T05:11:17.463Z,11.7
2022-09-27T05:12:20.316Z,11.7
2022-09-27T05:13:17.462Z,11.71
2022-09-27T05:14:17.755Z,11.62
2022-09-27T05:15:17.483Z,11.62
2022-09-27T05:16:17.788Z,11.7
2022-09-27T05:17:17.533Z,11.67
2022-09-27T05:18:17.505Z,11.68
2022-09-27T05:19:17.610Z,11.59
2022-09-27T05:20:17.504Z,11.56
2022-09-27T05:21:17.461Z,11.62
2022-09-27T05:22:17.558Z,11.59
2022-09-27T05:23:20.238Z,11.65
2022-09-27T05:24:17.545Z,11.67
2022-09-27T05:25:17.571Z,11.7
2022-09-27T05:26:17.507Z,11.7
2022-09-27T05:27:17.787Z,11.67
2022-09-27T05:28:17.530Z,11.7
2022-09-27T05:29:17.668Z,11.59
2022-09-27T05:30:17.507Z,11.63
2022-09-27T05:31:17.734Z,11.74
2022-09-27T05:32:17.506Z,11.73
2022-09-27T05:33:17.514Z,11.65
2022-09-27T05:34:20.369Z,11.7
2022-09-27T05:35:17.517Z,11.53
2022-09-27T05:36:17.597Z,11.6
2022-09-27T05:37:17.505Z,11.6
2022-09-27T05:38:17.797Z,11.56
2022-09-27T05:39:17.678Z,11.65
2022-09-27T05:40:45.016Z,11.56
2022-09-27T05:41:17.691Z,11.7
2022-09-27T05:42:17.534Z,11.63
2022-09-27T05:43:17.529Z,11.74
2022-09-27T05:44:17.785Z,11.67
2022-09-27T05:45:20.390Z,11.68
2022-09-27T05:46:17.797Z,11.76
2022-09-27T05:47:17.522Z,11.74
2022-09-27T05:48:17.575Z,11.74
2022-09-27T05:49:17.514Z,11.89
2022-09-27T05:50:20.429Z,11.78
2022-09-27T05:51:17.515Z,11.71
2022-09-27T05:52:23.816Z,11.6
2022-09-27T05:53:17.681Z,11.6
2022-09-27T05:54:17.727Z,11.53
2022-09-27T05:55:17.550Z,11.58
2022-09-27T05:56:20.527Z,11.6
2022-09-27T05:57:17.529Z,11.76
2022-09-27T05:58:17.551Z,11.59
2022-09-27T05:59:17.551Z,11.62
2022-09-27T06:00:17.584Z,11.68
2022-09-27T06:01:20.783Z,11.56
2022-09-27T06:02:17.773Z,11.58
2022-09-27T06:03:17.626Z,11.58
2022-09-27T06:04:17.906Z,11.7
2022-09-27T06:05:17.566Z,11.63
2022-09-27T06:06:17.539Z,11.65
2022-09-27T06:07:20.326Z,11.67
2022-09-27T06:08:17.550Z,11.71
2022-09-27T06:09:17.806Z,11.71
2022-09-27T06:10:17.580Z,11.7
2022-09-27T06:11:17.590Z,11.73
2022-09-27T06:12:20.564Z,11.67
2022-09-27T06:13:17.564Z,11.65
2022-09-27T06:14:17.579Z,11.71
2022-09-27T06:15:17.581Z,11.63
2022-09-27T06:16:17.766Z,11.65
2022-09-27T06:17:17.665Z,11.68
2022-09-27T06:18:20.685Z,11.73
2022-09-27T06:19:20.770Z,11.67
2022-09-27T06:20:17.581Z,11.7
2022-09-27T06:21:17.565Z,11.67
2022-09-27T06:22:17.565Z,11.67
2022-09-27T06:23:20.374Z,11.67
2022-09-27T06:24:17.579Z,11.68
2022-09-27T06:25:18.614Z,11.67
2022-09-27T06:26:17.575Z,11.6
2022-09-27T06:27:17.582Z,11.58
2022-09-27T06:28:17.589Z,11.65
2022-09-27T06:29:17.791Z,11.6
2022-09-27T06:30:22.876Z,11.52
2022-09-27T06:31:17.801Z,11.63
2022-09-27T06:32:17.606Z,11.52
2022-09-27T06:33:17.605Z,11.55
2022-09-27T06:34:20.395Z,11.65
2022-09-27T06:35:17.634Z,11.53
2022-09-27T06:37:17.613Z,11.71
2022-09-27T06:38:17.592Z,11.6
2022-09-27T06:39:17.747Z,11.63
2022-09-27T06:40:17.913Z,11.6
2022-09-27T06:41:17.598Z,11.56
2022-09-27T06:42:17.595Z,11.65
2022-09-27T06:43:17.605Z,11.58
2022-09-27T06:44:17.613Z,11.56
2022-09-27T06:45:20.436Z,11.62
2022-09-27T06:46:17.747Z,11.63
2022-09-27T06:47:17.628Z,11.67
2022-09-27T06:48:17.661Z,11.65
2022-09-27T06:49:17.963Z,11.65
2022-09-27T06:50:17.641Z,11.7
2022-09-27T06:51:17.635Z,11.76
2022-09-27T06:52:17.616Z,11.67
2022-09-27T06:53:17.623Z,11.78
2022-09-27T06:54:17.615Z,11.71
2022-09-27T06:55:17.647Z,11.7
2022-09-27T06:56:20.428Z,11.65
2022-09-27T06:57:17.629Z,11.68
2022-09-27T06:58:17.625Z,11.53
2022-09-27T06:59:17.971Z,11.74
2022-09-27T07:00:17.652Z,11.59
2022-09-27T07:01:17.868Z,11.65
2022-09-27T07:02:17.891Z,11.55
2022-09-27T07:03:17.636Z,11.6
2022-09-27T07:04:17.694Z,11.48
2022-09-27T07:05:17.649Z,11.58
2022-09-27T07:06:20.429Z,11.67
2022-09-27T07:07:20.771Z,11.7
2022-09-27T07:08:17.640Z,11.56
2022-09-27T07:09:17.889Z,11.59
2022-09-27T07:10:17.671Z,11.62
2022-09-27T07:11:17.656Z,11.51
2022-09-27T07:12:17.660Z,11.53
2022-09-27T07:13:17.643Z,11.56
2022-09-27T07:14:17.666Z,11.6
2022-09-27T07:15:17.670Z,11.56
2022-09-27T07:16:17.996Z,11.7
2022-09-27T07:17:17.690Z,11.7
2022-09-27T07:18:17.671Z,11.74
2022-09-27T07:19:17.887Z,11.65
2022-09-27T07:20:18.607Z,11.7
2022-09-27T07:21:17.671Z,11.77
2022-09-27T07:22:17.660Z,11.63
2022-09-27T07:23:17.685Z,11.71
2022-09-27T07:24:18.722Z,11.78
2022-09-27T07:25:17.708Z,11.85
2022-09-27T07:26:17.688Z,11.91
2022-09-27T07:27:17.678Z,11.91
2022-09-27T07:28:23.243Z,11.96
2022-09-27T07:29:18.032Z,11.97
2022-09-27T07:30:20.513Z,11.95
2022-09-27T07:31:17.958Z,12
2022-09-27T07:32:17.678Z,12.45
2022-09-27T07:33:17.546Z,12.36
2022-09-27T07:34:17.689Z,12.2
2022-09-27T07:35:17.709Z,12.25
2022-09-27T07:36:17.773Z,12.23
2022-09-27T07:37:17.699Z,12.36
2022-09-27T07:38:17.694Z,12.39
2022-09-27T07:39:20.855Z,12.37
2022-09-27T07:40:18.030Z,12.37
2022-09-27T07:41:17.541Z,12.65
2022-09-27T07:42:17.704Z,12.43
2022-09-27T07:43:17.698Z,12.58
2022-09-27T07:44:17.693Z,12.72
2022-09-27T07:45:17.720Z,12.57
2022-09-27T07:46:17.944Z,12.86
2022-09-27T07:47:17.719Z,12.7
2022-09-27T07:48:17.718Z,12.7
2022-09-27T07:49:18.009Z,12.68
2022-09-27T07:50:20.878Z,12.78
2022-09-27T07:51:17.710Z,12.62
2022-09-27T07:52:17.733Z,12.7
2022-09-27T07:53:17.722Z,12.78
2022-09-27T07:54:17.704Z,12.86
2022-09-27T07:55:17.773Z,12.93
2022-09-27T07:56:17.754Z,12.76
2022-09-27T07:57:17.729Z,12.87
2022-09-27T07:58:17.735Z,12.9
2022-09-27T07:59:17.968Z,12.87
2022-09-27T08:00:17.762Z,12.81
2022-09-27T08:01:20.997Z,12.76
2022-09-27T08:02:17.947Z,12.75
2022-09-27T08:03:17.735Z,12.87
2022-09-27T08:04:17.740Z,12.78
2022-09-27T08:05:17.774Z,12.78
2022-09-27T08:06:17.737Z,12.8
2022-09-27T08:07:19.072Z,12.88
2022-09-27T08:08:17.870Z,12.88
2022-09-27T08:09:18.031Z,12.9
2022-09-27T08:10:17.781Z,12.88
2022-09-27T08:11:17.772Z,12.69
2022-09-27T08:12:21.555Z,12.69
2022-09-27T08:13:17.578Z,12.66
2022-09-27T08:14:17.760Z,12.66
2022-09-27T08:15:17.783Z,12.81
2022-09-27T08:16:17.975Z,12.81
2022-09-27T08:17:17.767Z,12.78
2022-09-27T08:18:17.776Z,12.86
2022-09-27T08:19:17.950Z,12.81
2022-09-27T08:20:17.779Z,12.91
2022-09-27T08:21:17.838Z,12.88
2022-09-27T08:22:17.764Z,12.83
2022-09-27T08:23:20.966Z,12.84
2022-09-27T08:24:17.769Z,12.93
2022-09-27T08:25:17.841Z,12.86
2022-09-27T08:26:17.762Z,12.9
2022-09-27T08:27:17.829Z,12.95
2022-09-27T08:28:20.903Z,12.88
2022-09-27T08:29:17.960Z,12.93
2022-09-27T08:30:17.804Z,12.91
2022-09-27T08:31:18.008Z,12.93
2022-09-27T08:32:23.423Z,13.02
2022-09-27T08:33:17.821Z,13.05
2022-09-27T08:34:20.966Z,13.08
2022-09-27T08:35:17.826Z,13.05
2022-09-27T08:36:17.801Z,13.05
2022-09-27T08:37:17.829Z,13.17
2022-09-27T08:38:17.810Z,13.19
2022-09-27T08:39:21.050Z,13.03
2022-09-27T08:40:18.059Z,12.99
2022-09-27T08:41:17.840Z,13.13
2022-09-27T08:42:17.842Z,13.05
2022-09-27T08:43:17.931Z,13.21
2022-09-27T08:44:18.453Z,13.09
2022-09-27T08:45:20.838Z,12.95
2022-09-27T08:46:17.838Z,13.16
2022-09-27T08:47:17.814Z,13.03
2022-09-27T08:48:17.803Z,12.99
2022-09-27T08:49:17.856Z,13.06
2022-09-27T08:50:20.903Z,13.01
2022-09-27T08:51:17.802Z,12.99
2022-09-27T08:52:17.808Z,12.93
2022-09-27T08:53:17.833Z,13.03
2022-09-27T08:54:18.073Z,13.06
2022-09-27T08:55:17.875Z,13.06
2022-09-27T08:56:17.826Z,13.05
2022-09-27T08:57:17.823Z,13.2
2022-09-27T08:58:17.852Z,13.27
2022-09-27T08:59:17.907Z,13.17
2022-09-27T09:00:17.851Z,13.28
2022-09-27T09:01:23.982Z,13.2
2022-09-27T09:02:18.037Z,13.31
2022-09-27T09:03:20.593Z,13.16
2022-09-27T09:04:18.041Z,13.19
2022-09-27T09:05:18.038Z,13.28
2022-09-27T09:06:17.968Z,13.26
2022-09-27T09:07:17.841Z,13.3
2022-09-27T09:08:18.412Z,13.11
2022-09-27T09:09:17.864Z,13.09
2022-09-27T09:10:17.882Z,13.08
2022-09-27T09:11:17.868Z,13.27
2022-09-27T09:12:20.685Z,13.4
2022-09-27T09:13:17.897Z,13.4
2022-09-27T09:14:18.948Z,13.4
2022-09-27T09:15:17.898Z,13.43
2022-09-27T09:16:18.019Z,13.37
2022-09-27T09:17:17.847Z,13.49
2022-09-27T09:18:17.863Z,13.45
2022-09-27T09:19:17.857Z,13.43
2022-09-27T09:20:21.805Z,13.5
2022-09-27T09:21:17.865Z,13.54
2022-09-27T09:22:17.863Z,13.4
2022-09-27T09:23:20.670Z,13.26
2022-09-27T09:24:18.116Z,13.31
2022-09-27T09:25:17.925Z,13.3
2022-09-27T09:26:17.881Z,13.39
2022-09-27T09:27:17.927Z,13.49
2022-09-27T09:28:17.901Z,13.39
2022-09-27T09:29:24.106Z,13.5
2022-09-27T09:30:17.879Z,13.76
2022-09-27T09:31:18.088Z,13.75
2022-09-27T09:32:17.878Z,13.67
2022-09-27T09:33:20.906Z,13.78
2022-09-27T09:34:20.943Z,13.94
2022-09-27T09:35:17.886Z,14.05
2022-09-27T09:36:17.890Z,14.19
2022-09-27T09:37:19.151Z,14.05
2022-09-27T09:38:17.883Z,14.04
2022-09-27T09:39:17.896Z,13.82
2022-09-27T09:40:18.090Z,13.95
2022-09-27T09:41:17.961Z,13.89
2022-09-27T09:42:17.909Z,13.89
2022-09-27T09:43:17.943Z,13.85
2022-09-27T09:44:18.131Z,13.82
2022-09-27T09:45:17.903Z,13.83
2022-09-27T09:46:18.056Z,13.83
2022-09-27T09:47:17.946Z,13.79
2022-09-27T09:48:17.910Z,13.71
2022-09-27T09:49:17.912Z,13.7
2022-09-27T09:50:17.909Z,13.73
2022-09-27T09:51:17.932Z,13.78
2022-09-27T09:52:17.937Z,13.65
2022-09-27T09:53:17.933Z,13.68
2022-09-27T09:54:18.230Z,13.58
2022-09-27T09:55:17.918Z,13.58
2022-09-27T09:56:17.924Z,13.57
2022-09-27T09:57:17.955Z,13.55
2022-09-27T09:58:23.687Z,13.46
2022-09-27T09:59:17.939Z,13.7
2022-09-27T10:00:17.929Z,13.97
2022-09-27T10:01:18.172Z,13.86
2022-09-27T10:02:18.160Z,14.12
2022-09-27T10:03:17.960Z,14.34
2022-09-27T10:04:18.177Z,14.28
2022-09-27T10:05:17.989Z,14.18
2022-09-27T10:06:20.735Z,14.13
2022-09-27T10:07:17.928Z,14.3
2022-09-27T10:08:17.941Z,14.15
2022-09-27T10:09:17.936Z,14.16
2022-09-27T10:10:17.958Z,14.07
2022-09-27T10:11:17.940Z,14.12
2022-09-27T10:12:17.956Z,14.08
2022-09-27T10:13:17.975Z,14.08
2022-09-27T10:14:18.280Z,14.01
2022-09-27T10:15:17.947Z,13.94
2022-09-27T10:16:18.202Z,13.93
2022-09-27T10:17:20.709Z,13.86
2022-09-27T10:18:17.971Z,13.78
2022-09-27T10:19:17.985Z,13.73
2022-09-27T10:20:17.983Z,13.7
2022-09-27T10:21:17.969Z,13.46
2022-09-27T10:22:19.005Z,13.45
2022-09-27T10:23:17.965Z,13.45
2022-09-27T10:24:24.066Z,13.46
2022-09-27T10:25:17.972Z,13.54
2022-09-27T10:26:17.975Z,13.49
2022-09-27T10:27:17.976Z,13.62
2022-09-27T10:28:21.106Z,13.61
2022-09-27T10:29:18.001Z,13.62
2022-09-27T10:30:18.000Z,13.78
2022-09-27T10:31:18.399Z,13.82
2022-09-27T10:32:17.986Z,13.87
2022-09-27T10:33:17.973Z,13.87
2022-09-27T10:34:18.150Z,13.98
2022-09-27T10:35:23.688Z,14.12
2022-09-27T10:36:17.989Z,14.01
2022-09-27T10:37:17.997Z,13.89
2022-09-27T10:38:17.997Z,13.85
2022-09-27T10:39:20.830Z,13.61
2022-09-27T10:40:18.135Z,13.57
2022-09-27T10:41:18.000Z,13.49
2022-09-27T10:42:17.999Z,13.52
2022-09-27T10:43:18.006Z,13.16
2022-09-27T10:44:18.559Z,13.16
2022-09-27T10:45:18.032Z,13.08
2022-09-27T10:46:18.062Z,13.19
2022-09-27T10:47:18.003Z,13.19
2022-09-27T10:48:18.005Z,13.12
2022-09-27T10:49:18.004Z,13.12
2022-09-27T10:50:57.015Z,13.06
2022-09-27T10:51:18.060Z,12.99
2022-09-27T10:52:18.012Z,13.06
2022-09-27T10:53:18.008Z,12.87
2022-09-27T10:54:18.200Z,12.95
2022-09-27T10:55:21.073Z,12.9
2022-09-27T10:56:18.042Z,13.02
2022-09-27T10:57:18.099Z,13.06
2022-09-27T10:58:18.396Z,13.19
2022-09-27T10:59:18.029Z,13.13
2022-09-27T11:00:18.051Z,13.12
2022-09-27T11:01:21.407Z,13.3
2022-09-27T11:02:18.157Z,13.45
2022-09-27T11:03:18.073Z,13.6
2022-09-27T11:04:18.647Z,13.94
2022-09-27T11:05:20.017Z,14.13
2022-09-27T11:06:19.037Z,14.41
2022-09-27T11:07:19.051Z,14.68
2022-09-27T11:08:18.038Z,15.02
2022-09-27T11:09:18.039Z,15.12
2022-09-27T11:10:18.090Z,15.39
2022-09-27T11:11:18.065Z,15.54
2022-09-27T11:12:20.906Z,15.73
2022-09-27T11:13:18.045Z,16.06
2022-09-27T11:14:18.215Z,15.85
2022-09-27T11:15:18.057Z,15.88
2022-09-27T11:16:18.234Z,16.18
2022-09-27T11:17:21.270Z,16.44
2022-09-27T11:18:18.236Z,16.69
2022-09-27T11:19:20.205Z,16.77
2022-09-27T11:20:18.197Z,16.79
2022-09-27T11:21:18.123Z,16.99
2022-09-27T11:22:18.087Z,17.14
2022-09-27T11:23:18.065Z,17.05
2022-09-27T11:24:18.229Z,17.17
2022-09-27T11:25:18.068Z,17.01
2022-09-27T11:26:18.130Z,17.12
2022-09-27T11:27:18.074Z,17.07
2022-09-27T11:28:20.916Z,16.77
2022-09-27T11:29:18.074Z,16.89
2022-09-27T11:30:18.172Z,16.66
2022-09-27T11:31:23.440Z,16.44
2022-09-27T11:32:18.087Z,16.13
2022-09-27T11:33:18.133Z,15.73
2022-09-27T11:34:18.299Z,15.83
2022-09-27T11:35:18.121Z,15.88
2022-09-27T11:36:18.090Z,15.39
2022-09-27T11:37:18.086Z,15.45
2022-09-27T11:38:57.170Z,15.02
2022-09-27T11:39:21.395Z,14.97
2022-09-27T11:40:18.483Z,14.92
2022-09-27T11:41:18.103Z,14.68
2022-09-27T11:42:18.090Z,14.61
2022-09-27T11:43:18.093Z,14.48
2022-09-27T11:44:18.108Z,14.44
2022-09-27T11:46:17.682Z,14.4
2022-09-27T11:46:47.810Z,14.36
2022-09-27T11:47:44.200Z,14.38
2022-09-27T11:48:43.628Z,14.26
2022-09-27T11:49:43.592Z,14.36
2022-09-27T11:50:43.580Z,14.43
2022-09-27T11:51:46.662Z,14.87
2022-09-27T11:52:43.579Z,14.79
2022-09-27T11:53:43.666Z,14.82
2022-09-27T11:54:43.580Z,14.9
2022-09-27T11:55:43.580Z,14.93
2022-09-27T11:56:43.607Z,14.87
2022-09-27T11:57:46.643Z,14.73
2022-09-27T11:58:43.577Z,14.81
2022-09-27T11:59:43.633Z,14.74
2022-09-27T12:00:43.590Z,14.68
2022-09-27T12:01:43.773Z,14.67
2022-09-27T12:02:43.791Z,14.53
2022-09-27T12:03:43.591Z,14.59
2022-09-27T12:04:43.646Z,14.37
2022-09-27T12:05:43.596Z,14.28
2022-09-27T12:06:43.621Z,14.58
2022-09-27T12:07:43.599Z,14.7
2022-09-27T12:08:46.647Z,14.87
2022-09-27T12:09:43.602Z,14.86
2022-09-27T12:10:43.619Z,14.9
2022-09-27T12:11:43.954Z,14.99
2022-09-27T12:12:43.624Z,15.25
2022-09-27T12:13:43.609Z,15.27
2022-09-27T12:14:43.606Z,15.48
2022-09-27T12:15:43.821Z,15.5
2022-09-27T12:16:43.639Z,15.88
2022-09-27T12:17:43.681Z,15.7
2022-09-27T12:18:45.822Z,15.59
2022-09-27T12:19:46.533Z,15.44
2022-09-27T12:20:43.687Z,15.43
2022-09-27T12:21:43.638Z,15.52
2022-09-27T12:23:03.201Z,16.06
2022-09-27T12:23:43.626Z,16.22
2022-09-27T12:24:43.665Z,16.41
2022-09-27T12:25:43.681Z,16.68
2022-09-27T12:26:43.675Z,16.91
2022-09-27T12:27:43.633Z,16.82
2022-09-27T12:28:43.651Z,16.86
2022-09-27T12:29:43.652Z,16.76
2022-09-27T12:30:46.725Z,16.64
2022-09-27T12:31:43.889Z,16.46
2022-09-27T12:32:43.642Z,16.18
2022-09-27T12:33:43.698Z,16.13
2022-09-27T12:34:43.652Z,16.03
2022-09-27T12:35:46.813Z,15.73
2022-09-27T12:36:43.745Z,15.9
2022-09-27T12:37:43.698Z,15.81
2022-09-27T12:38:43.663Z,15.57
2022-09-27T12:39:43.676Z,15.57
2022-09-27T12:40:43.910Z,15.65
2022-09-27T12:41:46.763Z,15.41
2022-09-27T12:42:43.802Z,15.15
2022-09-27T12:43:48.780Z,15.15
2022-09-27T12:44:45.983Z,14.79
2022-09-27T12:45:43.682Z,14.7
2022-09-27T12:46:45.226Z,14.78
2022-09-27T12:47:43.663Z,14.82
2022-09-27T12:48:43.671Z,14.73
2022-09-27T12:49:43.673Z,14.53
2022-09-27T12:50:43.673Z,14.63
2022-09-27T12:51:43.736Z,14.62
2022-09-27T12:52:46.680Z,14.48
2022-09-27T12:53:43.683Z,14.53
2022-09-27T12:54:43.673Z,14.55
2022-09-27T12:55:43.692Z,14.43
2022-09-27T12:56:43.745Z,14.08
2022-09-27T12:57:46.708Z,13.97